Terminal Aerodrome Forecast
Issued by NWS Lake Charles, LA

Home | Current Version | Previous Version | Text Only | Print | Product List | Glossary On
Versions: 1 2 3 4 5 6 7 8 9 10 11 12 13 14 15 16
484
FTUS44 KLCH 290520
TAFLCH
TAF
KLCH 290520Z 2906/3006 11007KT P6SM VCSH SCT015 BKN025 BKN100
      TEMPO 2906/2910 3SM -RA BR BKN008 BKN015 OVC025
     FM291200 16007KT P6SM VCTS BKN025CB
     FM291700 21010KT P6SM VCTS BKN050CB
     FM300000 18007KT P6SM SCT100=

USA.gov is the U.S. government's official web portal to all federal, state and local government web resources and services.